createdAt,value
2022-09-28T00:00:17.472Z,9.19
2022-09-28T00:02:44.146Z,9.20
2022-09-28T00:05:10.858Z,9.22
2022-09-28T00:07:37.419Z,9.06
2022-09-28T00:10:05.854Z,9.11
2022-09-28T00:12:32.466Z,9.06
2022-09-28T00:14:59.050Z,9.25
2022-09-28T00:17:25.846Z,9.40
2022-09-28T00:19:52.490Z,9.02
2022-09-28T00:22:19.058Z,9.02
2022-09-28T00:24:45.650Z,9.40
2022-09-28T00:27:12.269Z,9.34
2022-09-28T00:29:38.830Z,9.49
2022-09-28T00:32:09.474Z,9.51
2022-09-28T00:34:38.702Z,9.59
2022-09-28T00:37:06.863Z,9.81
2022-09-28T00:39:33.437Z,9.73
2022-09-28T00:42:00.033Z,9.56
2022-09-28T00:44:26.564Z,9.40
2022-09-28T00:46:57.931Z,9.58
2022-09-28T00:49:34.931Z,9.22
2022-09-28T00:52:06.255Z,8.56
2022-09-28T00:54:34.764Z,8.76
2022-09-28T00:57:03.377Z,8.38
2022-09-28T00:59:31.805Z,8.65
2022-09-28T01:01:58.612Z,8.87
2022-09-28T01:04:29.759Z,8.66
2022-09-28T01:06:58.605Z,8.67
2022-09-28T01:09:27.453Z,8.63
2022-09-28T01:11:54.011Z,8.74
2022-09-28T01:14:21.085Z,8.97
2022-09-28T01:17:13.463Z,8.95
2022-09-28T01:20:15.167Z,8.85
2022-09-28T01:23:06.292Z,8.87
2022-09-28T01:26:00.647Z,8.71
2022-09-28T01:28:32.191Z,8.58
2022-09-28T01:31:04.819Z,8.83
2022-09-28T01:33:46.418Z,8.99
2022-09-28T01:36:20.283Z,8.92
2022-09-28T01:38:53.593Z,8.82
2022-09-28T01:41:22.292Z,8.81
2022-09-28T01:43:55.245Z,8.72
2022-09-28T01:46:27.113Z,8.70
2022-09-28T01:49:23.014Z,8.75
2022-09-28T01:52:02.247Z,8.82
2022-09-28T01:54:30.932Z,8.75
2022-09-28T01:57:09.247Z,8.64
2022-09-28T01:59:41.223Z,8.73
2022-09-28T02:02:19.062Z,8.98
2022-09-28T02:04:59.831Z,8.73
2022-09-28T02:07:34.452Z,8.75
2022-09-28T02:10:11.074Z,8.80
2022-09-28T02:12:44.029Z,8.71
2022-09-28T02:15:20.795Z,8.92
2022-09-28T02:17:48.177Z,8.94
2022-09-28T02:20:17.099Z,8.79
2022-09-28T02:22:44.261Z,8.88
2022-09-28T02:25:28.811Z,9.08
2022-09-28T02:27:59.354Z,9.06
2022-09-28T02:30:26.586Z,8.81
2022-09-28T02:32:58.795Z,8.77
2022-09-28T02:35:25.415Z,8.91
2022-09-28T02:37:52.562Z,8.93
2022-09-28T02:40:23.983Z,8.96
2022-09-28T02:43:20.745Z,8.94
2022-09-28T02:46:01.907Z,8.97
2022-09-28T02:49:10.482Z,9.18
2022-09-28T02:52:11.266Z,9.29
2022-09-28T02:54:49.790Z,9.20
2022-09-28T02:57:35.071Z,9.07
2022-09-28T03:00:11.706Z,8.82
2022-09-28T03:02:56.923Z,8.78
2022-09-28T03:06:01.994Z,8.76
2022-09-28T03:08:56.294Z,8.89
2022-09-28T03:11:36.246Z,8.77
2022-09-28T03:14:05.859Z,8.85
2022-09-28T03:16:32.479Z,8.84
2022-09-28T03:18:59.147Z,9.41
2022-09-28T03:21:25.739Z,9.13
2022-09-28T03:23:52.316Z,9.34
2022-09-28T03:26:18.875Z,9.66
2022-09-28T03:28:45.624Z,9.51
2022-09-28T03:31:12.297Z,9.64
2022-09-28T03:33:39.012Z,9.43
2022-09-28T03:36:05.742Z,9.43
2022-09-28T03:38:32.291Z,9.00
2022-09-28T03:41:00.384Z,8.87
2022-09-28T03:43:28.072Z,8.84
2022-09-28T03:46:00.159Z,8.76
2022-09-28T03:48:32.424Z,8.92
2022-09-28T03:51:02.156Z,8.89
2022-09-28T03:53:28.929Z,9.19
2022-09-28T03:55:55.818Z,9.01
2022-09-28T03:58:23.209Z,9.18
2022-09-28T04:00:50.492Z,9.20
2022-09-28T04:03:17.167Z,9.24
2022-09-28T04:05:53.270Z,9.26
2022-09-28T04:08:19.978Z,9.19
2022-09-28T04:10:46.976Z,9.21
2022-09-28T04:13:13.755Z,9.38
2022-09-28T04:15:40.322Z,9.24
2022-09-28T04:18:13.237Z,8.90
2022-09-28T04:20:39.815Z,8.73
2022-09-28T04:23:06.442Z,9.13
2022-09-28T04:25:33.008Z,9.21
2022-09-28T04:27:59.595Z,9.52
2022-09-28T04:30:26.232Z,9.28
2022-09-28T04:32:52.813Z,9.26
2022-09-28T04:35:19.456Z,9.31
2022-09-28T04:37:46.084Z,9.31
2022-09-28T04:40:12.669Z,9.01
2022-09-28T04:42:39.241Z,9.22
2022-09-28T04:45:06.528Z,9.04
2022-09-28T04:47:33.217Z,9.39
2022-09-28T04:49:59.824Z,9.23
2022-09-28T04:52:26.378Z,8.83
2022-09-28T04:54:52.980Z,9.21
2022-09-28T04:57:19.722Z,8.48
2022-09-28T04:59:46.287Z,8.35
2022-09-28T05:02:12.885Z,8.15
2022-09-28T05:04:39.573Z,8.19
2022-09-28T05:07:06.220Z,8.55
2022-09-28T05:09:36.320Z,8.37
2022-09-28T05:12:05.402Z,8.18
2022-09-28T05:14:32.062Z,8.09
2022-09-28T05:16:58.798Z,8.13
2022-09-28T05:19:25.396Z,8.13
2022-09-28T05:21:51.965Z,8.10
2022-09-28T05:24:18.598Z,8.09
2022-09-28T05:26:45.202Z,8.28
2022-09-28T05:29:11.766Z,8.24
2022-09-28T05:31:38.436Z,8.25
2022-09-28T05:34:05.167Z,8.45
2022-09-28T05:36:31.775Z,8.77
2022-09-28T05:38:58.454Z,8.83
2022-09-28T05:41:25.036Z,8.85
2022-09-28T05:43:51.612Z,8.62
2022-09-28T05:46:18.307Z,8.51
2022-09-28T05:48:44.933Z,8.50
2022-09-28T05:51:11.555Z,8.52
2022-09-28T05:53:38.242Z,8.51
2022-09-28T05:56:04.919Z,8.53
2022-09-28T05:58:31.575Z,8.59
2022-09-28T06:00:58.776Z,8.67
2022-09-28T06:03:25.736Z,8.73
2022-09-28T06:05:52.892Z,8.78
2022-09-28T06:08:19.523Z,8.55
2022-09-28T06:10:46.119Z,8.68
2022-09-28T06:13:12.767Z,8.57
2022-09-28T06:15:42.474Z,9.13
2022-09-28T06:18:14.043Z,8.93
2022-09-28T06:20:41.449Z,8.69
2022-09-28T06:23:09.314Z,8.84
2022-09-28T06:25:35.969Z,8.97
2022-09-28T06:28:09.742Z,8.63
2022-09-28T06:30:36.713Z,8.43
2022-09-28T06:33:03.340Z,8.46
2022-09-28T06:35:31.296Z,8.52
2022-09-28T06:37:59.094Z,8.79
2022-09-28T06:40:26.996Z,9.09
2022-09-28T06:43:02.450Z,9.19
2022-09-28T06:45:30.187Z,9.43
2022-09-28T06:47:59.242Z,10.23
2022-09-28T06:50:27.579Z,10.27
2022-09-28T06:52:55.315Z,9.93
2022-09-28T06:55:22.138Z,9.82
2022-09-28T06:58:04.467Z,9.83
2022-09-28T07:00:33.950Z,9.77
2022-09-28T07:03:03.310Z,9.81
2022-09-28T07:05:30.513Z,10.13
2022-09-28T07:07:57.633Z,10.32
2022-09-28T07:10:28.927Z,10.50
2022-09-28T07:12:57.028Z,10.97
2022-09-28T07:15:24.657Z,10.92
2022-09-28T07:18:01.858Z,10.19
2022-09-28T07:20:30.118Z,10.99
2022-09-28T07:23:09.756Z,10.75
2022-09-28T07:25:40.412Z,10.37
2022-09-28T07:28:06.987Z,10.43
2022-09-28T07:30:35.003Z,10.42
2022-09-28T07:33:02.847Z,10.58
2022-09-28T07:35:29.528Z,10.76
2022-09-28T07:38:00.802Z,10.59
2022-09-28T07:40:28.010Z,10.53
2022-09-28T07:42:54.615Z,10.66
2022-09-28T07:45:21.264Z,10.65
2022-09-28T07:47:47.876Z,10.74
2022-09-28T07:50:14.559Z,11.15
2022-09-28T07:52:41.129Z,11.45
2022-09-28T07:55:08.165Z,11.54
2022-09-28T07:57:34.745Z,11.59
2022-09-28T08:00:01.642Z,11.93
2022-09-28T08:02:28.302Z,12.16
2022-09-28T08:04:54.880Z,12.69
2022-09-28T08:07:23.862Z,12.34
2022-09-28T08:09:51.059Z,12.25
2022-09-28T08:12:17.671Z,12.34
2022-09-28T08:14:44.232Z,12.31
2022-09-28T08:17:10.809Z,12.62
2022-09-28T08:19:37.441Z,12.14
2022-09-28T08:22:04.149Z,12.02
2022-09-28T08:24:31.508Z,12.15
2022-09-28T08:26:58.075Z,12.32
2022-09-28T08:29:24.624Z,12.42
2022-09-28T08:31:51.207Z,12.45
2022-09-28T08:34:17.882Z,12.70
2022-09-28T08:36:44.486Z,12.48
2022-09-28T08:39:11.096Z,12.75
2022-09-28T08:41:50.459Z,13.15
2022-09-28T08:44:20.164Z,13.00
2022-09-28T08:47:00.607Z,13.27
2022-09-28T08:49:37.248Z,13.23
2022-09-28T08:52:10.879Z,13.36
2022-09-28T08:54:40.385Z,13.40
2022-09-28T08:57:20.938Z,12.94
2022-09-28T08:59:52.390Z,13.58
2022-09-28T09:02:30.582Z,13.59
2022-09-28T09:04:58.012Z,13.81
2022-09-28T09:07:43.090Z,13.66
2022-09-28T09:10:33.087Z,13.47
2022-09-28T09:13:17.940Z,13.61
2022-09-28T09:16:16.578Z,13.71
2022-09-28T09:18:52.243Z,13.57
2022-09-28T09:21:33.363Z,14.10
2022-09-28T09:24:18.025Z,14.18
2022-09-28T09:26:45.738Z,14.11
2022-09-28T09:29:33.719Z,14.02
2022-09-28T09:32:22.830Z,13.82
2022-09-28T09:35:12.464Z,14.12
2022-09-28T09:38:18.728Z,14.09
2022-09-28T09:40:52.869Z,13.96
2022-09-28T09:43:34.765Z,13.99
2022-09-28T09:46:04.162Z,14.28
2022-09-28T09:48:46.229Z,14.41
2022-09-28T09:51:37.817Z,14.75
2022-09-28T09:54:18.500Z,14.68
2022-09-28T09:57:06.983Z,14.81
2022-09-28T09:59:38.147Z,14.83
2022-09-28T10:02:29.121Z,14.80
2022-09-28T10:05:17.219Z,14.81
2022-09-28T10:08:00.634Z,14.77
2022-09-28T10:10:34.557Z,14.45
2022-09-28T10:13:01.859Z,14.38
2022-09-28T10:15:31.169Z,14.51
2022-09-28T10:18:03.352Z,14.60
2022-09-28T10:20:34.567Z,14.37
2022-09-28T10:23:04.161Z,14.60
2022-09-28T10:25:34.291Z,14.56
2022-09-28T10:28:01.487Z,14.77
2022-09-28T10:30:28.190Z,14.80
2022-09-28T10:32:55.604Z,14.79
2022-09-28T10:35:28.426Z,14.46
2022-09-28T10:37:58.894Z,14.58
2022-09-28T10:40:40.387Z,14.84
2022-09-28T10:43:18.199Z,14.83
2022-09-28T10:45:45.187Z,14.54
2022-09-28T10:48:22.321Z,14.77
2022-09-28T10:51:19.574Z,14.56
2022-09-28T10:54:02.371Z,14.91
2022-09-28T10:56:36.490Z,14.89
2022-09-28T10:59:22.806Z,14.86
2022-09-28T11:01:54.633Z,14.62
2022-09-28T11:04:26.323Z,15.09
2022-09-28T11:06:53.297Z,15.36
2022-09-28T11:09:29.689Z,15.53
2022-09-28T11:11:59.373Z,15.80
2022-09-28T11:14:42.493Z,15.86
2022-09-28T11:17:30.147Z,15.49
2022-09-28T11:19:59.193Z,15.29
2022-09-28T11:22:29.179Z,15.01
2022-09-28T11:25:14.003Z,15.06
2022-09-28T11:27:40.943Z,15.27
2022-09-28T11:30:25.793Z,15.65
2022-09-28T11:33:22.475Z,15.74
2022-09-28T11:36:06.951Z,15.91
2022-09-28T11:39:08.422Z,15.95
2022-09-28T11:41:46.987Z,15.86
2022-09-28T11:44:33.815Z,15.66
2022-09-28T11:47:33.361Z,15.66
2022-09-28T11:50:22.893Z,15.81
2022-09-28T11:53:01.681Z,15.74
2022-09-28T11:55:41.667Z,15.79
2022-09-28T11:58:17.567Z,15.94
2022-09-28T12:00:52.545Z,16.15
2022-09-28T12:03:34.649Z,16.21
2022-09-28T12:06:05.897Z,16.41
2022-09-28T12:08:37.097Z,16.49
2022-09-28T12:11:23.720Z,16.42
2022-09-28T12:13:54.257Z,15.65
2022-09-28T12:17:00.484Z,15.91
2022-09-28T12:19:29.856Z,15.93
2022-09-28T12:22:05.438Z,16.19
2022-09-28T12:24:54.360Z,16.21
2022-09-28T12:27:30.573Z,15.92
2022-09-28T12:30:18.991Z,15.98
2022-09-28T12:32:57.227Z,16.39
2022-09-28T12:36:14.830Z,16.72
2022-09-28T12:39:21.853Z,16.68
2022-09-28T12:41:59.787Z,16.57
2022-09-28T12:44:35.110Z,16.48
2022-09-28T12:47:23.351Z,16.52
2022-09-28T12:50:37.497Z,16.84
2022-09-28T12:53:08.046Z,16.94
2022-09-28T12:55:53.092Z,16.54
2022-09-28T12:58:19.616Z,16.52
2022-09-28T13:00:55.155Z,16.69
2022-09-28T13:03:27.533Z,16.68
2022-09-28T13:06:21.645Z,16.83
2022-09-28T13:09:06.592Z,16.57
2022-09-28T13:11:58.072Z,16.39
2022-09-28T13:15:01.321Z,16.67
2022-09-28T13:17:49.079Z,16.53
2022-09-28T13:20:39.024Z,16.53
2022-09-28T13:23:21.285Z,16.81
2022-09-28T13:25:56.625Z,16.85
2022-09-28T13:28:27.235Z,17.11
2022-09-28T13:30:56.751Z,17.39
2022-09-28T13:33:31.471Z,17.67
2022-09-28T13:35:58.043Z,17.28
2022-09-28T13:38:24.684Z,16.69
2022-09-28T13:41:06.400Z,16.18
2022-09-28T13:43:59.051Z,16.21
2022-09-28T13:46:52.126Z,16.39
2022-09-28T13:49:21.662Z,16.46
2022-09-28T13:51:51.143Z,16.81
2022-09-28T13:54:29.762Z,16.87
2022-09-28T13:57:16.942Z,16.79
2022-09-28T14:00:02.597Z,16.71
2022-09-28T14:02:37.518Z,16.43
2022-09-28T14:05:22.871Z,16.81
2022-09-28T14:08:18.873Z,16.91
2022-09-28T14:10:48.058Z,17.18
2022-09-28T14:13:43.295Z,17.04
2022-09-28T14:16:20.314Z,17.05
2022-09-28T14:19:25.987Z,16.83
2022-09-28T14:22:30.102Z,17.14
2022-09-28T14:25:24.297Z,16.61
2022-09-28T14:28:09.352Z,16.66
2022-09-28T14:30:41.759Z,16.63
2022-09-28T14:33:26.754Z,16.48
2022-09-28T14:35:57.624Z,16.43
2022-09-28T14:38:47.986Z,16.54
2022-09-28T14:41:17.285Z,16.28
2022-09-28T14:43:43.871Z,16.20
2022-09-28T14:46:10.397Z,16.20
2022-09-28T14:48:49.915Z,16.20
2022-09-28T14:51:25.627Z,16.55
2022-09-28T14:53:59.827Z,16.62
2022-09-28T14:56:32.612Z,16.77
2022-09-28T14:59:00.562Z,16.81
2022-09-28T15:01:27.829Z,16.77
2022-09-28T15:03:58.634Z,16.56
2022-09-28T15:06:25.984Z,16.29
2022-09-28T15:08:52.574Z,16.31
2022-09-28T15:11:22.764Z,16.21
2022-09-28T15:13:51.228Z,16.07
2022-09-28T15:16:18.149Z,16.20
2022-09-28T15:18:44.747Z,15.94
2022-09-28T15:21:13.016Z,15.89
2022-09-28T15:23:41.998Z,15.69
2022-09-28T15:26:24.875Z,15.58
2022-09-28T15:28:51.462Z,15.70
2022-09-28T15:31:21.436Z,15.68
2022-09-28T15:33:48.546Z,15.71
2022-09-28T15:36:28.694Z,15.71
2022-09-28T15:39:07.004Z,15.69
2022-09-28T15:41:34.278Z,16.02
2022-09-28T15:44:06.808Z,16.05
2022-09-28T15:46:36.617Z,16.05
2022-09-28T15:49:04.700Z,16.06
2022-09-28T15:51:46.002Z,15.88
2022-09-28T15:54:21.361Z,15.99
2022-09-28T15:56:59.247Z,16.04
2022-09-28T15:59:33.158Z,15.92
2022-09-28T16:02:19.967Z,15.80
2022-09-28T16:04:52.922Z,15.53
2022-09-28T16:07:29.645Z,15.77
2022-09-28T16:10:12.855Z,15.92
2022-09-28T16:12:46.965Z,15.90
2022-09-28T16:15:33.985Z,15.86
2022-09-28T16:18:12.779Z,15.87
2022-09-28T16:20:41.374Z,15.63
2022-09-28T16:23:16.943Z,15.50
2022-09-28T16:26:09.590Z,15.48
2022-09-28T16:28:39.169Z,15.51
2022-09-28T16:31:15.072Z,15.40
2022-09-28T16:33:53.245Z,15.18
2022-09-28T16:36:21.281Z,15.27
2022-09-28T16:38:49.177Z,15.43
2022-09-28T16:41:23.250Z,15.40
2022-09-28T16:43:58.892Z,15.47
2022-09-28T16:46:33.396Z,15.10
2022-09-28T16:49:00.092Z,15.07
2022-09-28T16:51:26.682Z,15.06
2022-09-28T16:53:53.458Z,15.27
2022-09-28T16:56:20.109Z,15.33
2022-09-28T16:58:47.629Z,15.30
2022-09-28T17:01:14.246Z,15.07
2022-09-28T17:03:41.371Z,15.26
2022-09-28T17:06:12.141Z,15.08
2022-09-28T17:08:38.714Z,15.09
2022-09-28T17:11:24.672Z,15.15
2022-09-28T17:13:52.237Z,14.88
2022-09-28T17:16:32.665Z,14.92
2022-09-28T17:19:28.293Z,14.76
2022-09-28T17:21:54.964Z,14.56
2022-09-28T17:24:21.892Z,14.77
2022-09-28T17:26:51.147Z,14.97
2022-09-28T17:29:18.349Z,15.01
2022-09-28T17:31:46.503Z,14.79
2022-09-28T17:34:16.604Z,14.59
2022-09-28T17:36:44.123Z,14.53
2022-09-28T17:39:16.441Z,14.38
2022-09-28T17:41:43.440Z,14.62
2022-09-28T17:44:10.596Z,14.55
2022-09-28T17:46:40.312Z,14.53
2022-09-28T17:49:07.878Z,14.59
2022-09-28T17:51:36.415Z,14.46
2022-09-28T17:54:06.951Z,14.42
2022-09-28T17:56:34.048Z,14.15
2022-09-28T17:59:06.065Z,14.16
2022-09-28T18:01:33.969Z,14.28
2022-09-28T18:04:03.230Z,14.22
2022-09-28T18:06:29.839Z,14.39
2022-09-28T18:08:56.431Z,14.49
2022-09-28T18:11:25.995Z,14.22
2022-09-28T18:13:52.577Z,14.21
2022-09-28T18:16:19.296Z,14.17
2022-09-28T18:18:45.965Z,14.24
2022-09-28T18:21:12.659Z,14.27
2022-09-28T18:23:39.700Z,14.24
2022-09-28T18:26:14.234Z,14.14
2022-09-28T18:28:41.001Z,14.16
2022-09-28T18:31:09.310Z,14.16
2022-09-28T18:33:51.360Z,14.13
2022-09-28T18:36:18.059Z,14.23
2022-09-28T18:38:44.652Z,14.30
2022-09-28T18:41:18.233Z,14.17
2022-09-28T18:43:49.348Z,14.07
2022-09-28T18:46:17.032Z,14.11
2022-09-28T18:48:43.615Z,13.95
2022-09-28T18:51:11.955Z,14.02
2022-09-28T18:53:39.828Z,14.07
2022-09-28T18:56:09.081Z,13.99
2022-09-28T18:58:37.153Z,13.98
2022-09-28T19:01:30.134Z,13.97
2022-09-28T19:04:02.493Z,13.83
2022-09-28T19:06:29.422Z,13.99
2022-09-28T19:08:56.880Z,13.89
2022-09-28T19:11:24.784Z,13.86
2022-09-28T19:13:53.334Z,13.80
2022-09-28T19:16:23.496Z,13.62
2022-09-28T19:18:51.330Z,13.89
2022-09-28T19:21:17.952Z,13.79
2022-09-28T19:23:49.204Z,13.70
2022-09-28T19:26:18.821Z,13.62
2022-09-28T19:31:12.172Z,13.37
2022-09-28T19:33:40.054Z,13.36
2022-09-28T19:36:13.123Z,13.40
2022-09-28T19:38:40.471Z,13.29
2022-09-28T19:41:18.301Z,13.41
2022-09-28T19:43:44.868Z,13.31
2022-09-28T19:46:11.463Z,13.17
2022-09-28T19:48:38.109Z,12.97
2022-09-28T19:51:06.414Z,13.18
2022-09-28T19:53:34.731Z,13.03
2022-09-28T19:56:01.381Z,13.07
2022-09-28T19:58:34.419Z,13.26
2022-09-28T20:01:05.312Z,13.38
2022-09-28T20:03:32.514Z,13.06
2022-09-28T20:06:00.347Z,13.09
2022-09-28T20:08:27.804Z,13.03
2022-09-28T20:10:54.900Z,13.19
2022-09-28T20:13:21.879Z,13.10
2022-09-28T20:15:48.486Z,13.18
2022-09-28T20:18:15.277Z,13.22
2022-09-28T20:20:42.206Z,13.22
2022-09-28T20:23:09.777Z,13.32
2022-09-28T20:25:36.684Z,13.12
2022-09-28T20:28:03.259Z,13.17
2022-09-28T20:30:29.854Z,13.04
2022-09-28T20:32:56.430Z,12.97
2022-09-28T20:35:32.686Z,12.91
2022-09-28T20:37:59.476Z,13.13
2022-09-28T20:40:26.085Z,13.13
2022-09-28T20:42:52.690Z,13.08
2022-09-28T20:45:19.327Z,13.08
2022-09-28T20:47:45.906Z,13.04
2022-09-28T20:50:12.524Z,12.86
2022-09-28T20:52:39.156Z,12.81
2022-09-28T20:55:06.113Z,12.97
2022-09-28T20:57:32.675Z,12.80
2022-09-28T20:59:59.295Z,12.90
2022-09-28T21:02:25.971Z,12.82
2022-09-28T21:04:52.636Z,12.97
2022-09-28T21:07:19.240Z,12.77
2022-09-28T21:09:45.819Z,12.70
2022-09-28T21:12:12.404Z,12.64
2022-09-28T21:14:39.049Z,12.42
2022-09-28T21:17:05.725Z,12.77
2022-09-28T21:19:32.303Z,12.97
2022-09-28T21:22:00.191Z,12.89
2022-09-28T21:24:26.740Z,12.70
2022-09-28T21:26:53.365Z,12.42
2022-09-28T21:29:20.010Z,12.56
2022-09-28T21:31:46.805Z,12.61
2022-09-28T21:34:15.967Z,12.43
2022-09-28T21:36:42.588Z,12.93
2022-09-28T21:39:10.548Z,12.53
2022-09-28T21:41:37.306Z,12.62
2022-09-28T21:44:03.897Z,12.30
2022-09-28T21:46:30.601Z,12.36
2022-09-28T21:48:57.216Z,12.55
2022-09-28T21:51:23.829Z,12.50
2022-09-28T21:53:50.431Z,12.57
2022-09-28T21:56:17.274Z,12.71
2022-09-28T21:58:43.858Z,12.59
2022-09-28T22:01:13.249Z,12.49
2022-09-28T22:03:41.554Z,12.80
2022-09-28T22:06:09.047Z,12.87
2022-09-28T22:08:36.513Z,13.11
2022-09-28T22:11:12.863Z,13.06
2022-09-28T22:13:48.493Z,12.96
2022-09-28T22:16:18.194Z,12.82
2022-09-28T22:18:45.887Z,12.74
2022-09-28T22:21:15.266Z,12.62
2022-09-28T22:23:42.311Z,12.63
2022-09-28T22:26:15.453Z,12.47
2022-09-28T22:28:46.410Z,12.67
2022-09-28T22:31:14.719Z,12.60
2022-09-28T22:33:41.551Z,12.57
2022-09-28T22:36:08.139Z,12.58
2022-09-28T22:38:35.416Z,12.62
2022-09-28T22:41:02.257Z,12.50
2022-09-28T22:43:29.116Z,12.69
2022-09-28T22:46:10.413Z,12.80
2022-09-28T22:48:37.843Z,12.56
2022-09-28T22:51:06.021Z,12.45
2022-09-28T22:53:34.000Z,12.48
2022-09-28T22:56:01.470Z,12.51
2022-09-28T22:58:28.037Z,12.66
2022-09-28T23:00:54.609Z,12.62
2022-09-28T23:03:21.172Z,12.53
2022-09-28T23:05:54.903Z,12.47
2022-09-28T23:08:22.530Z,12.44
2022-09-28T23:10:49.601Z,12.38
2022-09-28T23:13:16.377Z,12.47
2022-09-28T23:15:43.101Z,12.53
2022-09-28T23:18:10.851Z,12.47
2022-09-28T23:20:37.411Z,12.39
2022-09-28T23:23:03.987Z,12.45
2022-09-28T23:25:30.566Z,12.40
2022-09-28T23:27:57.128Z,12.55
2022-09-28T23:30:23.979Z,12.61
2022-09-28T23:32:52.261Z,12.70
2022-09-28T23:35:18.843Z,12.69
2022-09-28T23:37:49.811Z,12.48
2022-09-28T23:40:16.470Z,12.42
2022-09-28T23:42:43.126Z,12.64
2022-09-28T23:45:10.012Z,12.76
2022-09-28T23:47:37.115Z,12.78
2022-09-28T23:50:05.676Z,13.02
2022-09-28T23:52:32.270Z,12.79
2022-09-28T23:54:58.902Z,12.76
2022-09-28T23:57:25.483Z,12.57
2022-09-28T23:59:52.032Z,12.54
